Time;durP1;ratioP1;P1;durP2;ratioP2;P2;SDS_P1;SDS_P2;PMS_P1;PMS_P2;Temp;Humidity;BMP_temperature;BMP_pressure;BME280_temperature;BME280_humidity;BME280_pressure;Samples;Min_cycle;Max_cycle;Signal;HPM_P1;HPM_P2
2022/06/04 00:01:41;;;;;;;9.82;4.57;;;;;;;30.17;36.04;101446.75;143724;661;46004;-73
2022/06/04 00:04:11;;;;;;;6.93;4.95;;;;;;;30.17;36.21;101452.28;143727;570;46004;-73
2022/06/04 00:06:38;;;;;;;11.23;5.45;;;;;;;30.13;36.74;101447.69;143724;595;47010;-73
2022/06/04 00:09:06;;;;;;;10.82;4.93;;;;;;;30.04;36.42;101451.19;143725;584;46004;-73
2022/06/04 00:17:01;;;;;;;6.78;4.80;;;;;;;29.94;37.31;101434.81;143722;622;47002;-73
2022/06/04 00:19:27;;;;;;;10.63;4.28;;;;;;;29.94;36.67;101427.31;143723;588;46929;-73
2022/06/04 00:21:53;;;;;;;8.18;5.00;;;;;;;29.95;36.94;101434.50;143723;681;46919;-72
2022/06/04 00:24:20;;;;;;;7.12;5.10;;;;;;;29.95;37.05;101445.59;143714;690;47004;-73
2022/06/04 00:26:47;;;;;;;11.05;4.68;;;;;;;29.90;36.69;101434.63;143722;582;47004;-74
2022/06/04 00:29:13;;;;;;;10.32;4.65;;;;;;;29.88;37.15;101436.87;143724;588;46004;-72
2022/06/04 00:31:40;;;;;;;6.80;4.40;;;;;;;29.88;36.25;101430.50;143722;602;47006;-72
2022/06/04 00:34:06;;;;;;;7.97;4.37;;;;;;;29.86;36.75;101430.84;143727;669;46004;-72
2022/06/04 00:36:33;;;;;;;9.93;4.93;;;;;;;29.78;37.25;101418.56;143718;600;47010;-73
2022/06/04 00:39:00;;;;;;;8.95;5.20;;;;;;;29.79;36.75;101411.88;143722;631;47004;-72
2022/06/04 00:41:58;;;;;;;11.30;4.57;;;;;;;29.77;37.00;101410.53;143725;732;46021;-72
2022/06/04 00:45:10;;;;;;;7.15;4.60;;;;;;;29.78;36.93;101418.56;143723;572;47002;-73
2022/06/04 00:47:36;;;;;;;10.65;4.87;;;;;;;29.69;37.45;101428.72;143724;577;47009;-71
2022/06/04 00:50:08;;;;;;;13.55;5.10;;;;;;;29.68;37.29;101432.63;143708;633;50002;-72
2022/06/04 00:52:35;;;;;;;7.53;4.78;;;;;;;29.65;37.85;101424.97;143724;586;46006;-72
2022/06/04 00:55:06;;;;;;;10.10;5.00;;;;;;;29.66;37.28;101418.28;143721;573;47002;-72
2022/06/04 00:58:18;;;;;;;6.80;4.32;;;;;;;29.70;37.97;101424.81;143724;583;46011;-72
2022/06/04 01:01:00;;;;;;;8.73;4.68;;;;;;;29.71;36.61;101409.84;143726;628;46004;-72
2022/06/04 01:03:58;;;;;;;13.15;4.93;;;;;;;29.73;37.02;101420.63;143725;575;47007;-72
2022/06/04 01:06:58;;;;;;;12.57;4.70;;;;;;;29.73;37.15;101415.91;143722;668;47006;-73
2022/06/04 01:10:22;;;;;;;9.45;5.57;;;;;;;29.74;37.36;101420.31;143722;622;46010;-72
2022/06/04 01:13:08;;;;;;;9.25;5.95;;;;;;;29.71;37.33;101420.13;143724;586;46008;-72
2022/06/04 01:16:23;;;;;;;8.70;6.12;;;;;;;29.70;36.93;101419.28;143722;582;47006;-73
2022/06/04 01:19:11;;;;;;;;;;;;;;;29.76;36.74;101426.34;143733;985;46008;-72
2022/06/04 01:22:03;;;;;;;12.52;6.28;;;;;;;29.77;36.99;101425.22;143731;769;46010;-72
2022/06/04 01:25:09;;;;;;;10.93;5.72;;;;;;;29.76;36.81;101418.06;143715;614;48002;-72
2022/06/04 01:28:00;;;;;;;11.05;4.72;;;;;;;29.75;36.47;101419.19;143723;602;46004;-73
2022/06/04 01:30:34;;;;;;;9.13;5.65;;;;;;;29.73;36.80;101426.97;143717;588;48006;-72
2022/06/04 01:33:40;;;;;;;11.40;5.30;;;;;;;29.75;36.57;101423.87;143726;588;46010;-72
2022/06/04 01:36:32;;;;;;;7.95;4.80;;;;;;;29.65;36.81;101420.22;143713;604;47008;-73
2022/06/04 01:39:07;;;;;;;10.95;4.72;;;;;;;29.70;37.06;101413.75;143724;570;46007;-72
2022/06/04 01:41:42;;;;;;;10.52;4.90;;;;;;;29.78;36.42;101401.94;143725;683;47000;-73
2022/06/04 01:44:39;;;;;;;9.10;4.93;;;;;;;29.85;36.46;101409.81;143722;578;47008;-72
2022/06/04 01:47:06;;;;;;;11.10;4.72;;;;;;;29.83;37.05;101422.34;143723;637;47004;-72
2022/06/04 01:49:53;;;;;;;8.65;4.35;;;;;;;29.76;37.11;101419.97;143724;664;46006;-72
2022/06/04 01:52:28;;;;;;;8.18;4.87;;;;;;;29.72;37.23;101422.56;143725;603;46008;-72
2022/06/04 01:55:11;;;;;;;11.65;4.53;;;;;;;29.69;37.70;101419.63;143725;580;47008;-73
2022/06/04 01:58:06;;;;;;;6.75;5.00;;;;;;;29.71;37.48;101409.03;143727;582;46008;-74
2022/06/04 02:00:38;;;;;;;11.05;4.82;;;;;;;29.65;37.81;101405.59;143723;636;46006;-74
2022/06/04 02:03:17;;;;;;;10.23;4.78;;;;;;;29.59;37.99;101409.59;143726;573;46008;-73
2022/06/04 02:06:01;;;;;;;8.48;4.47;;;;;;;29.60;37.77;101406.50;143723;593;46010;-72
2022/06/04 02:08:37;;;;;;;9.32;4.35;;;;;;;29.61;37.57;101407.34;143727;612;46004;-73
2022/06/04 02:11:19;;;;;;;7.82;4.40;;;;;;;29.55;38.53;101411.34;143726;601;46920;-74
2022/06/04 02:13:48;;;;;;;8.38;4.60;;;;;;;29.51;38.70;101425.00;143728;567;46008;-74
2022/06/04 02:16:26;;;;;;;8.70;5.15;;;;;;;29.46;38.77;101427.84;143722;591;47002;-72
2022/06/04 02:18:55;;;;;;;11.80;4.07;;;;;;;29.49;37.92;101422.50;143727;572;46004;-70
2022/06/04 02:21:23;;;;;;;8.65;4.68;;;;;;;29.56;37.59;101419.34;143720;592;47006;-73
2022/06/04 02:23:50;;;;;;;8.05;4.65;;;;;;;29.59;38.08;101423.44;143727;567;46004;-72
2022/06/04 02:26:18;;;;;;;9.18;4.60;;;;;;;29.53;38.70;101427.44;143725;594;46010;-73
2022/06/04 02:28:46;;;;;;;9.30;4.35;;;;;;;29.49;38.97;101425.28;143724;566;46004;-74
2022/06/04 02:31:40;;;;;;;9.30;5.05;;;;;;;29.42;39.00;101432.38;143718;583;48014;-74
2022/06/04 02:34:26;;;;;;;10.00;4.97;;;;;;;29.39;38.74;101427.47;143728;577;46008;-73
2022/06/04 02:37:22;;;;;;;12.95;7.53;;;;;;;29.37;38.57;101427.78;143723;610;47002;-74
2022/06/04 02:40:09;;;;;;;15.18;10.48;;;;;;;29.37;39.05;101424.19;143724;584;46004;-74
2022/06/04 02:43:05;;;;;;;17.58;11.65;;;;;;;29.33;38.72;101427.53;143724;568;47000;-73
2022/06/04 02:45:44;;;;;;;12.93;9.93;;;;;;;29.29;39.39;101434.81;143720;591;47006;-73
2022/06/04 02:48:41;;;;;;;12.93;6.20;;;;;;;29.26;39.32;101434.63;143725;584;46011;-73
2022/06/04 02:51:25;;;;;;;12.35;5.45;;;;;;;29.20;39.86;101437.50;143717;622;47004;-73
2022/06/04 02:53:54;;;;;;;13.98;5.40;;;;;;;29.18;39.92;101441.72;143720;588;47002;-74
2022/06/04 02:56:32;;;;;;;11.55;4.95;;;;;;;29.15;39.89;101439.56;143728;568;47006;-73
2022/06/04 02:59:03;;;;;;;8.80;4.30;;;;;;;29.14;39.92;101444.25;143725;574;46011;-72
2022/06/04 03:01:32;;;;;;;9.98;4.90;;;;;;;29.12;39.93;101445.69;143721;595;47008;-73
2022/06/04 03:03:59;;;;;;;7.32;4.43;;;;;;;29.13;39.84;101459.19;143726;611;46006;-74
2022/06/04 03:06:31;;;;;;;12.43;4.03;;;;;;;29.12;40.13;101456.75;143721;567;50004;-72
2022/06/04 03:08:59;;;;;;;10.55;4.22;;;;;;;29.08;40.31;101469.56;143723;709;46921;-74
2022/06/04 03:11:26;;;;;;;11.07;4.22;;;;;;;29.02;40.54;101466.91;143722;758;47004;-73
2022/06/04 03:13:53;;;;;;;9.02;4.20;;;;;;;29.07;40.34;101463.22;143727;566;46004;-73
2022/06/04 03:16:20;;;;;;;11.30;4.82;;;;;;;29.08;40.11;101464.84;143725;579;46006;-73
2022/06/04 03:18:47;;;;;;;10.27;4.20;;;;;;;29.10;40.15;101459.84;143725;584;46010;-73
2022/06/04 03:21:13;;;;;;;14.13;4.53;;;;;;;29.11;39.73;101455.13;143725;568;47004;-73
2022/06/04 03:23:40;;;;;;;8.93;4.05;;;;;;;29.10;39.89;101464.53;143727;575;46004;-74
2022/06/04 03:26:06;;;;;;;7.37;4.15;;;;;;;29.08;40.22;101456.56;143728;597;46002;-73
2022/06/04 03:28:32;;;;;;;7.12;4.85;;;;;;;29.11;39.83;101458.72;143722;589;47008;-74
2022/06/04 03:31:00;;;;;;;10.63;4.43;;;;;;;29.11;40.15;101466.19;143725;581;47003;-73
2022/06/04 03:33:26;;;;;;;10.52;4.10;;;;;;;29.14;40.17;101476.63;143726;669;46919;-72
2022/06/04 03:35:53;;;;;;;10.57;4.95;;;;;;;29.13;40.15;101486.88;143729;581;46012;-73
2022/06/04 03:38:19;;;;;;;10.73;5.18;;;;;;;29.15;39.94;101492.91;143721;575;47008;-73
2022/06/04 03:40:46;;;;;;;12.02;5.05;;;;;;;29.12;39.61;101499.09;143718;589;47008;-73
2022/06/04 03:43:12;;;;;;;11.75;5.50;;;;;;;29.15;39.52;101490.16;143724;674;47006;-73
2022/06/04 03:45:38;;;;;;;10.38;5.05;;;;;;;29.12;39.62;101498.25;143729;585;46009;-74
2022/06/04 03:48:05;;;;;;;13.52;4.62;;;;;;;29.12;39.59;101498.25;143727;632;46010;-74
2022/06/04 03:50:32;;;;;;;14.32;5.10;;;;;;;29.15;39.55;101500.41;143726;641;46008;-73
2022/06/04 03:52:58;;;;;;;9.10;5.00;;;;;;;29.17;39.35;101504.50;143727;590;46006;-73
2022/06/04 03:55:25;;;;;;;12.77;4.57;;;;;;;29.18;39.22;101502.56;143730;572;46004;-75
2022/06/04 03:57:52;;;;;;;8.63;4.53;;;;;;;29.20;39.76;101497.53;143723;578;47004;-73
2022/06/04 04:00:33;;;;;;;12.55;5.55;;;;;;;29.17;39.86;101506.44;143723;680;47004;-72
2022/06/04 04:03:04;;;;;;;11.68;5.45;;;;;;;29.17;40.30;101507.25;143728;719;46006;-73
2022/06/04 04:05:38;;;;;;;11.75;5.05;;;;;;;29.17;40.42;101512.00;143726;572;47002;-72
2022/06/04 04:08:08;;;;;;;11.85;5.68;;;;;;;29.15;40.61;101517.81;143725;605;47004;-72
2022/06/04 04:10:35;;;;;;;35.83;7.78;;;;;;;29.21;40.08;101513.03;143723;588;47002;-73
2022/06/04 04:13:01;;;;;;;40.97;8.35;;;;;;;29.24;40.20;101512.38;143727;597;46006;-72
2022/06/04 04:15:28;;;;;;;17.67;5.43;;;;;;;29.25;40.17;101505.72;143728;599;47000;-73
2022/06/04 04:17:55;;;;;;;106.30;16.48;;;;;;;29.31;39.90;101509.19;143723;573;47013;-73
2022/06/04 04:20:25;;;;;;;81.25;12.07;;;;;;;29.37;39.96;101524.63;143726;573;47004;-74
2022/06/04 04:22:52;;;;;;;11.75;5.97;;;;;;;29.37;39.99;101521.03;143727;588;46023;-73
2022/06/04 04:25:21;;;;;;;29.85;6.85;;;;;;;29.29;39.83;101523.34;143719;647;47008;-72
2022/06/04 04:27:49;;;;;;;94.97;16.30;;;;;;;29.30;40.12;101522.22;143717;568;47006;-74
2022/06/04 04:30:19;;;;;;;40.55;8.35;;;;;;;29.34;40.41;101537.09;143720;582;47004;-74
2022/06/04 04:32:46;;;;;;;10.15;5.00;;;;;;;29.37;40.64;101534.87;143725;572;46008;-75
2022/06/04 04:35:16;;;;;;;104.72;13.73;;;;;;;29.38;40.29;101533.75;143720;596;47004;-73
2022/06/04 04:37:43;;;;;;;62.03;9.88;;;;;;;29.43;40.20;101540.00;143712;615;46020;-73
2022/06/04 04:40:12;;;;;;;88.80;13.95;;;;;;;29.46;40.05;101547.69;143722;567;46932;-73
2022/06/04 04:42:39;;;;;;;48.95;8.02;;;;;;;29.50;39.90;101543.16;143726;588;46012;-73
2022/06/04 04:45:09;;;;;;;21.48;6.18;;;;;;;29.56;38.83;101548.59;143715;637;47013;-72
2022/06/04 04:47:39;;;;;;;19.60;7.25;;;;;;;29.59;38.53;101548.78;143722;568;47010;-73
2022/06/04 04:50:09;;;;;;;25.30;6.32;;;;;;;29.64;38.56;101540.41;143725;578;47004;-73
2022/06/04 04:52:35;;;;;;;21.70;6.45;;;;;;;29.71;38.58;101539.97;143724;616;47008;-74
2022/06/04 04:55:02;;;;;;;19.73;6.22;;;;;;;29.78;38.66;101547.84;143726;580;46017;-73
2022/06/04 04:57:28;;;;;;;16.45;6.10;;;;;;;29.82;39.26;101531.47;143726;626;46921;-73
2022/06/04 04:59:55;;;;;;;10.30;5.10;;;;;;;29.88;39.81;101533.81;143719;675;47009;-73
2022/06/04 05:02:21;;;;;;;11.93;5.90;;;;;;;29.88;38.97;101538.50;143726;592;47006;-74
2022/06/04 05:04:48;;;;;;;14.13;5.18;;;;;;;29.90;39.06;101541.78;143728;620;47002;-71
2022/06/04 05:07:14;;;;;;;17.17;5.50;;;;;;;29.94;38.48;101542.81;143730;579;46008;-72
2022/06/04 05:09:41;;;;;;;15.02;5.75;;;;;;;29.95;38.55;101537.00;143722;592;46006;-72
2022/06/04 05:12:09;;;;;;;13.80;5.60;;;;;;;30.02;39.05;101544.06;143727;736;46008;-73
2022/06/04 05:14:37;;;;;;;13.25;5.62;;;;;;;30.05;39.09;101547.03;143730;679;46002;-72
2022/06/04 05:17:04;;;;;;;14.05;5.93;;;;;;;30.09;38.30;101533.38;143723;587;47004;-73
2022/06/04 05:19:31;;;;;;;17.42;6.07;;;;;;;30.14;37.99;101549.88;143724;569;47002;-72
2022/06/04 05:21:58;;;;;;;16.60;6.37;;;;;;;30.17;38.10;101549.25;143720;582;48006;-73
2022/06/04 05:24:27;;;;;;;20.62;7.07;;;;;;;30.21;37.45;101543.91;143728;597;46008;-72
2022/06/04 05:26:55;;;;;;;15.35;7.62;;;;;;;30.15;37.01;101545.97;143725;593;46010;-73
2022/06/04 05:29:22;;;;;;;12.95;7.18;;;;;;;30.18;36.86;101537.03;143726;578;47007;-73
2022/06/04 05:31:49;;;;;;;13.25;8.10;;;;;;;30.25;36.64;101542.16;143722;581;47000;-73
2022/06/04 05:34:18;;;;;;;16.42;7.28;;;;;;;30.31;36.46;101548.37;143728;570;47001;-73
2022/06/04 05:36:45;;;;;;;18.02;7.53;;;;;;;30.33;36.55;101549.72;143727;589;47008;-73
2022/06/04 05:39:13;;;;;;;15.63;7.32;;;;;;;30.37;36.59;101545.16;143726;631;46008;-73
2022/06/04 05:41:40;;;;;;;12.37;6.22;;;;;;;30.41;36.45;101542.59;143722;596;47004;-72
2022/06/04 05:44:07;;;;;;;16.67;8.20;;;;;;;30.47;36.38;101543.28;143721;589;47006;-83
2022/06/04 05:46:34;;;;;;;21.90;9.50;;;;;;;30.53;36.69;101544.81;143722;675;46011;-82
2022/06/04 05:49:01;;;;;;;15.48;8.48;;;;;;;30.59;37.49;101535.25;143725;578;47002;-83
2022/06/04 05:51:30;;;;;;;19.15;8.00;;;;;;;30.62;36.98;101537.41;143726;653;46006;-81
2022/06/04 05:53:57;;;;;;;14.93;7.25;;;;;;;30.64;36.74;101543.44;143725;607;47006;-80
2022/06/04 05:56:27;;;;;;;14.68;6.87;;;;;;;30.63;36.95;101547.34;143727;600;46010;-81
2022/06/04 05:58:56;;;;;;;18.77;6.90;;;;;;;30.67;36.98;101542.81;143726;572;46004;-82
2022/06/04 06:01:24;;;;;;;19.35;6.78;;;;;;;30.72;37.12;101541.03;143726;567;46007;-81
2022/06/04 06:03:50;;;;;;;10.68;6.30;;;;;;;30.71;36.98;101543.00;143728;574;46006;-81
2022/06/04 06:06:20;;;;;;;18.05;6.72;;;;;;;30.79;37.44;101547.81;143728;608;46010;-82
2022/06/04 06:08:48;;;;;;;13.20;5.95;;;;;;;30.88;37.19;101545.06;143722;657;47008;-81
2022/06/04 06:11:16;;;;;;;17.45;8.05;;;;;;;30.92;36.81;101536.94;143726;653;47000;-80
2022/06/04 06:13:44;;;;;;;12.13;6.15;;;;;;;30.98;37.35;101539.25;143721;710;47002;-81
2022/06/04 06:16:17;;;;;;;11.57;6.28;;;;;;;31.02;37.33;101533.88;143718;691;47010;-82
2022/06/04 06:18:44;;;;;;;13.03;6.93;;;;;;;31.08;37.23;101538.16;143726;636;47004;-79
2022/06/04 06:21:14;;;;;;;15.90;6.90;;;;;;;31.12;37.21;101533.59;143728;583;46002;-82
2022/06/04 06:23:41;;;;;;;15.45;6.93;;;;;;;31.18;36.59;101531.53;143726;618;47006;-82
2022/06/04 06:26:14;;;;;;;11.48;5.82;;;;;;;31.23;37.11;101525.84;143727;597;46018;-82
2022/06/04 06:28:41;;;;;;;13.98;5.82;;;;;;;31.19;36.51;101522.06;143725;591;46004;-79
2022/06/04 06:31:09;;;;;;;13.65;5.75;;;;;;;31.18;36.66;101526.00;143729;572;46006;-84
2022/06/04 06:33:36;;;;;;;10.50;5.82;;;;;;;31.22;36.27;101531.72;143728;596;47008;-84
2022/06/04 06:36:07;;;;;;;11.20;5.43;;;;;;;31.28;36.74;101520.12;143730;576;46010;-81
2022/06/04 06:38:34;;;;;;;17.35;10.65;;;;;;;31.41;37.32;101528.69;143724;610;47008;-80
2022/06/04 06:41:01;;;;;;;14.50;10.65;;;;;;;31.51;36.74;101527.56;143727;606;46006;-81
2022/06/04 06:43:49;;;;;;;14.63;9.00;;;;;;;31.58;36.48;101531.53;143728;592;46010;-84
2022/06/04 06:46:28;;;;;;;14.57;7.22;;;;;;;31.66;35.91;101529.06;143725;583;46006;-80
2022/06/04 06:49:00;;;;;;;11.50;5.43;;;;;;;31.72;36.54;101523.06;143724;580;46013;-81
2022/06/04 06:51:33;;;;;;;12.15;6.70;;;;;;;31.75;35.56;101511.31;143724;581;47006;-71
2022/06/04 06:53:59;;;;;;;10.70;4.82;;;;;;;31.74;35.78;101517.19;143727;610;47008;-73
2022/06/04 06:56:32;;;;;;;9.57;4.37;;;;;;;31.65;35.76;101524.66;143727;573;46006;-72
2022/06/04 06:59:00;;;;;;;14.30;4.73;;;;;;;31.70;35.64;101533.66;143726;600;46004;-72
2022/06/04 07:01:28;;;;;;;10.95;4.87;;;;;;;31.72;35.96;101533.38;143725;617;46007;-71
2022/06/04 07:03:55;;;;;;;12.88;5.28;;;;;;;31.67;35.50;101534.31;143725;588;47004;-71
2022/06/04 07:06:40;;;;;;;14.23;4.80;;;;;;;31.70;35.76;101543.94;143729;579;46004;-71
2022/06/04 07:09:19;;;;;;;12.68;4.18;;;;;;;31.71;35.71;101548.41;143713;580;47002;-70
2022/06/04 07:11:45;;;;;;;11.88;4.78;;;;;;;31.52;36.91;101548.63;143722;586;46006;-72
2022/06/04 07:14:13;;;;;;;11.63;4.72;;;;;;;31.48;36.28;101542.09;143725;589;47006;-71
2022/06/04 07:16:40;;;;;;;10.40;4.68;;;;;;;31.49;38.61;101543.75;143727;568;46011;-71
2022/06/04 07:19:07;;;;;;;10.70;5.40;;;;;;;31.55;38.44;101539.66;143727;602;46004;-71
2022/06/04 07:21:34;;;;;;;12.18;5.87;;;;;;;31.54;37.62;101538.84;143727;657;46006;-70
2022/06/04 07:24:01;;;;;;;13.07;5.47;;;;;;;31.60;37.50;101536.75;143729;580;46004;-72
2022/06/04 07:26:27;;;;;;;13.05;4.57;;;;;;;31.71;37.30;101538.09;143727;630;46010;-71
2022/06/04 07:28:54;;;;;;;10.20;5.15;;;;;;;31.78;37.25;101534.84;143721;568;46008;-71
2022/06/04 07:31:21;;;;;;;10.75;5.78;;;;;;;31.90;37.26;101529.47;143725;621;47006;-70
2022/06/04 07:33:49;;;;;;;8.15;4.87;;;;;;;31.90;36.32;101536.97;143726;569;47002;-71
2022/06/04 07:36:19;;;;;;;12.48;5.40;;;;;;;31.94;36.87;101546.31;143727;581;46921;-72
2022/06/04 07:38:46;;;;;;;14.75;7.05;;;;;;;31.82;37.98;101552.50;143716;635;47004;-72
2022/06/04 07:41:36;;;;;;;8.23;6.12;;;;;;;31.64;37.81;101548.84;143724;600;46006;-71
2022/06/04 07:44:03;;;;;;;10.15;5.07;;;;;;;31.68;38.42;101560.13;143722;606;48002;-73
2022/06/04 07:46:31;;;;;;;11.98;5.32;;;;;;;31.61;38.31;101563.38;143728;594;46011;-70
2022/06/04 07:49:00;;;;;;;8.75;5.10;;;;;;;31.59;37.90;101552.56;143721;588;47004;-71
2022/06/04 07:51:28;;;;;;;12.40;5.25;;;;;;;31.69;37.90;101554.22;143724;579;46005;-70
2022/06/04 07:53:55;;;;;;;8.73;5.50;;;;;;;31.83;37.27;101554.12;143726;583;47004;-71
2022/06/04 07:56:23;;;;;;;12.10;5.05;;;;;;;31.95;36.98;101558.25;143722;618;47008;-71
2022/06/04 07:58:50;;;;;;;11.15;5.12;;;;;;;31.96;36.50;101549.56;143723;589;47008;-71
2022/06/04 08:01:20;;;;;;;8.30;4.90;;;;;;;32.06;36.34;101554.81;143719;580;47006;-77
2022/06/04 08:03:48;;;;;;;9.48;5.30;;;;;;;32.07;36.13;101552.88;143727;572;46006;-76
2022/06/04 08:06:17;;;;;;;10.95;5.07;;;;;;;32.05;36.51;101555.16;143722;573;47004;-77
2022/06/04 08:08:45;;;;;;;11.30;5.65;;;;;;;32.02;36.60;101553.84;143727;611;46008;-77
2022/06/04 08:13:56;;;;;;;11.12;5.68;;;;;;;32.27;35.78;101554.19;143725;573;47009;-79
2022/06/04 08:16:23;;;;;;;13.77;5.20;;;;;;;32.34;36.15;101550.91;143724;605;46010;-79
2022/06/04 08:18:50;;;;;;;6.68;4.65;;;;;;;32.42;35.97;101552.88;143726;646;46004;-78
2022/06/04 08:21:17;;;;;;;9.85;4.93;;;;;;;32.52;35.55;101554.53;143720;567;46006;-79
2022/06/04 08:23:44;;;;;;;11.80;4.18;;;;;;;32.54;35.50;101554.19;143726;589;46004;-80
2022/06/04 08:26:12;;;;;;;6.75;4.90;;;;;;;32.61;35.12;101544.19;143723;568;47010;-77
2022/06/04 08:28:38;;;;;;;13.75;4.95;;;;;;;32.69;34.93;101541.72;143723;617;47004;-78
2022/06/04 08:31:08;;;;;;;10.38;4.50;;;;;;;32.69;33.94;101545.31;143723;582;47010;-78
2022/06/04 08:33:36;;;;;;;10.45;4.62;;;;;;;32.69;33.93;101541.72;143723;629;46014;-65
2022/06/04 08:36:04;;;;;;;9.63;5.00;;;;;;;32.74;34.26;101547.94;143724;595;46012;-65
2022/06/04 08:38:31;;;;;;;11.50;4.80;;;;;;;32.84;33.83;101546.78;143724;646;46014;-65
2022/06/04 08:41:02;;;;;;;9.13;4.70;;;;;;;32.82;33.92;101542.72;143725;591;46008;-66
2022/06/04 08:43:57;;;;;;;9.55;5.05;;;;;;;32.86;34.78;101540.88;143720;583;46024;-65
2022/06/04 08:47:05;;;;;;;11.70;5.00;;;;;;;32.90;35.26;101548.25;143718;568;47010;-66
2022/06/04 08:49:35;;;;;;;11.18;4.90;;;;;;;32.85;35.92;101551.22;143723;580;46006;-66
2022/06/04 08:52:10;;;;;;;13.27;5.35;;;;;;;32.70;34.44;101551.72;143723;588;47009;-65
2022/06/04 08:57:33;;;;;;;12.00;5.15;;;;;;;32.40;34.82;101549.63;143724;685;47012;-66
2022/06/04 09:00:35;;;;;;;8.95;4.75;;;;;;;32.42;37.32;101549.28;143723;612;47004;-65
2022/06/04 09:03:48;;;;;;;13.38;5.37;;;;;;;32.33;37.75;101547.34;143722;579;47008;-65
2022/06/04 09:06:44;;;;;;;10.40;6.53;;;;;;;32.45;36.86;101541.13;143719;636;47004;-65
2022/06/04 09:09:25;;;;;;;13.62;4.85;;;;;;;32.56;35.88;101536.03;143723;715;46012;-65
2022/06/04 09:12:03;;;;;;;11.60;5.37;;;;;;;32.54;35.07;101546.66;143718;573;47006;-65
2022/06/04 09:14:41;;;;;;;12.32;4.53;;;;;;;32.40;34.80;101546.84;143724;760;46008;-66
2022/06/04 09:17:15;;;;;;;7.50;4.70;;;;;;;32.20;34.89;101542.75;143719;663;47006;-65
2022/06/04 09:19:47;;;;;;;12.48;5.35;;;;;;;32.32;34.73;101540.12;143724;634;46012;-65
2022/06/04 09:22:31;;;;;;;14.00;4.93;;;;;;;32.48;34.70;101540.44;143723;577;47006;-64
2022/06/04 09:24:57;;;;;;;12.57;5.50;;;;;;;32.69;34.62;101536.97;143726;625;46008;-65
2022/06/04 09:27:55;;;;;;;10.13;4.37;;;;;;;32.60;34.37;101536.19;143725;583;46008;-64
2022/06/04 09:30:45;;;;;;;9.77;4.30;;;;;;;32.52;35.04;101535.06;143718;627;46924;-64
2022/06/04 09:34:09;;;;;;;9.73;5.45;;;;;;;32.50;35.29;101532.59;143723;616;46006;-65
2022/06/04 09:36:38;;;;;;;11.07;4.62;;;;;;;32.61;34.06;101527.50;143722;579;47009;-65
2022/06/04 09:39:38;;;;;;;9.10;4.30;;;;;;;32.78;34.20;101526.66;143727;568;46004;-64
2022/06/04 09:42:29;;;;;;;11.68;5.82;;;;;;;33.01;33.94;101522.84;143725;608;47010;-64
2022/06/04 09:45:01;;;;;;;10.68;5.15;;;;;;;32.99;33.19;101533.50;143724;608;46006;-64
2022/06/04 09:47:49;;;;;;;11.10;4.05;;;;;;;32.92;33.54;101534.00;143724;593;46008;-65
2022/06/04 09:50:34;;;;;;;13.25;4.50;;;;;;;32.94;33.88;101520.56;143723;622;47016;-64
2022/06/04 09:53:41;;;;;;;7.85;4.50;;;;;;;32.84;33.21;101516.19;143725;586;46013;-65
2022/06/04 09:56:13;;;;;;;9.85;3.87;;;;;;;32.80;32.80;101521.59;143725;566;46006;-65
2022/06/04 09:58:43;;;;;;;7.60;3.70;;;;;;;32.73;33.00;101507.34;143715;637;47006;-65
2022/06/04 10:01:23;;;;;;;14.73;4.35;;;;;;;32.83;32.07;101508.19;143723;617;47004;-64
2022/06/04 10:04:18;;;;;;;9.05;3.60;;;;;;;32.92;31.62;101514.53;143725;600;46012;-65
2022/06/04 10:06:44;;;;;;;10.75;4.18;;;;;;;33.10;32.10;101504.13;143718;687;47006;-65
2022/06/04 10:12:03;;;;;;;12.05;3.58;;;;;;;32.98;32.19;101516.00;143727;670;46008;-66
2022/06/04 10:14:33;;;;;;;11.85;3.95;;;;;;;32.90;32.40;101511.25;143722;573;47004;-65
2022/06/04 10:17:00;;;;;;;8.38;3.42;;;;;;;33.04;32.43;101511.06;143725;569;47004;-66
2022/06/04 10:19:27;;;;;;;7.47;3.50;;;;;;;32.84;32.39;101507.84;143725;585;46008;-66
2022/06/04 10:22:25;;;;;;;12.25;4.35;;;;;;;32.90;33.39;101500.97;143726;575;47004;-66
2022/06/04 10:24:57;;;;;;;11.73;4.40;;;;;;;32.98;34.52;101504.03;143723;566;46010;-65
2022/06/04 10:28:10;;;;;;;11.30;5.12;;;;;;;33.16;33.17;101496.44;143723;663;47004;-65
2022/06/04 10:30:57;;;;;;;7.80;4.68;;;;;;;33.31;33.75;101500.59;143725;567;46008;-66
2022/06/04 10:33:50;;;;;;;6.32;3.87;;;;;;;33.43;34.22;101511.03;143727;596;46012;-65
2022/06/04 10:36:56;;;;;;;5.70;3.70;;;;;;;33.40;32.87;101491.06;143719;597;49010;-65
2022/06/04 10:39:52;;;;;;;9.27;3.80;;;;;;;33.40;33.78;101487.50;143724;728;47010;-66
2022/06/04 10:42:43;;;;;;;8.63;4.18;;;;;;;33.50;33.88;101484.31;143726;616;46008;-65
2022/06/04 10:45:49;;;;;;;9.27;4.43;;;;;;;33.41;33.11;101484.34;143724;662;47006;-65
2022/06/04 10:48:47;;;;;;;11.02;4.05;;;;;;;33.35;35.39;101477.34;143726;592;46008;-65
2022/06/04 10:52:01;;;;;;;14.35;4.18;;;;;;;33.35;35.33;101473.72;143722;586;47002;-65
2022/06/04 10:55:04;;;;;;;12.37;3.65;;;;;;;33.58;35.20;101473.44;143729;676;46006;-65
2022/06/04 10:57:46;;;;;;;12.43;5.03;;;;;;;33.78;35.51;101471.81;143722;581;47004;-67
2022/06/04 11:00:25;;;;;;;7.43;3.90;;;;;;;33.79;33.34;101470.66;143720;740;46991;-65
2022/06/04 11:03:04;;;;;;;8.35;3.90;;;;;;;33.70;33.12;101481.88;143723;647;46004;-66
2022/06/04 11:05:40;;;;;;;10.90;3.70;;;;;;;33.52;33.26;101472.84;143725;580;46004;-65
2022/06/04 11:08:35;;;;;;;7.25;3.25;;;;;;;33.39;31.83;101478.31;143721;631;46008;-67
2022/06/04 11:11:11;;;;;;;11.88;3.53;;;;;;;33.16;32.33;101471.37;208753;57;55132;-65
2022/06/04 11:13:46;;;;;;;11.93;3.97;;;;;;;33.28;36.00;101459.50;143642;574;124407;-66
2022/06/04 11:16:36;;;;;;;11.15;4.18;;;;;;;33.44;37.04;101462.56;143720;597;47008;-66
2022/06/04 11:19:23;;;;;;;6.30;3.83;;;;;;;33.46;36.28;101457.47;143722;607;47004;-65
2022/06/04 11:22:03;;;;;;;8.15;3.83;;;;;;;33.46;35.80;101454.69;143722;575;47006;-66
2022/06/04 11:24:39;;;;;;;7.50;3.85;;;;;;;33.25;35.22;101449.88;143721;590;47012;-66
2022/06/04 11:27:44;;;;;;;10.20;4.10;;;;;;;33.19;35.02;101443.69;143720;595;47004;-65
2022/06/04 11:30:23;;;;;;;10.35;4.37;;;;;;;33.16;35.30;101443.56;143721;567;48004;-65
2022/06/04 11:33:32;;;;;;;7.40;4.15;;;;;;;33.19;35.69;101446.47;143718;583;47012;-65
2022/06/04 11:36:37;;;;;;;10.63;4.10;;;;;;;33.17;34.75;101445.97;143721;703;47007;-65
2022/06/04 11:39:40;;;;;;;8.07;3.97;;;;;;;32.87;34.76;101440.41;143720;587;47008;-65
2022/06/04 11:42:35;;;;;;;10.07;3.70;;;;;;;32.88;34.55;101442.06;143723;623;47009;-73
2022/06/04 11:46:00;;;;;;;8.93;4.72;;;;;;;33.00;34.88;101438.56;143720;592;47013;-73
2022/06/04 11:48:53;;;;;;;8.55;3.55;;;;;;;33.01;33.59;101426.25;143720;603;47006;-72
2022/06/04 11:52:12;;;;;;;9.93;3.60;;;;;;;32.88;33.28;101441.22;143719;594;47009;-73
2022/06/04 11:55:17;;;;;;;8.00;3.75;;;;;;;32.81;32.95;101427.78;143722;585;47010;-73
2022/06/04 11:58:08;;;;;;;9.85;4.07;;;;;;;32.90;32.99;101422.22;143725;684;47011;-70
2022/06/04 12:00:42;;;;;;;9.32;3.70;;;;;;;32.93;33.11;101416.78;143719;617;47006;-73
2022/06/04 12:03:45;;;;;;;8.20;4.40;;;;;;;32.83;33.36;101416.37;143721;614;47008;-71
2022/06/04 12:06:30;;;;;;;7.85;4.18;;;;;;;32.91;33.42;101408.00;143723;613;47007;-72
2022/06/04 12:09:31;;;;;;;8.90;4.43;;;;;;;33.06;32.90;101403.00;143721;598;47010;-72
2022/06/04 12:12:08;;;;;;;9.23;4.22;;;;;;;33.08;33.20;101412.63;143636;594;99104;-73
2022/06/04 12:14:51;;;;;;;8.30;3.80;;;;;;;33.15;33.08;101400.97;143723;598;46008;-72
2022/06/04 12:17:39;;;;;;;8.90;4.80;;;;;;;33.19;33.32;101401.09;143726;635;46023;-72